createdAt,value
2019-01-18T00:00:12.462Z,1.80
2019-01-18T00:02:42.326Z,1.80
2019-01-18T00:05:12.263Z,1.80
2019-01-18T00:07:42.399Z,1.70
2019-01-18T00:10:12.261Z,1.70
2019-01-18T00:12:42.314Z,1.70
2019-01-18T00:15:12.771Z,1.70
2019-01-18T00:17:43.018Z,1.70
2019-01-18T00:20:13.635Z,1.70
2019-01-18T00:22:43.578Z,1.80
2019-01-18T00:25:14.021Z,1.60
2019-01-18T00:27:44.163Z,1.70
2019-01-18T00:30:14.421Z,1.70
2019-01-18T00:32:44.475Z,1.60
2019-01-18T00:35:14.428Z,1.70
2019-01-18T00:37:44.130Z,1.60
2019-01-18T00:40:14.426Z,1.60
2019-01-18T00:42:44.283Z,1.60
2019-01-18T00:45:15.247Z,1.60
2019-01-18T00:47:45.035Z,1.60
2019-01-18T00:50:15.942Z,1.60
2019-01-18T00:52:46.123Z,1.60
2019-01-18T00:55:16.000Z,1.70
2019-01-18T00:57:46.109Z,1.70
2019-01-18T01:00:21.736Z,1.70
2019-01-18T01:02:52.341Z,1.70
2019-01-18T01:05:22.883Z,1.60
2019-01-18T01:07:52.771Z,1.60
2019-01-18T01:10:23.414Z,1.60
2019-01-18T01:12:54.210Z,1.60
2019-01-18T01:15:24.690Z,1.60
2019-01-18T01:17:54.582Z,1.50
2019-01-18T01:20:24.678Z,1.50
2019-01-18T01:22:54.831Z,1.50
2019-01-18T01:25:24.783Z,1.50
2019-01-18T01:27:54.918Z,1.40
2019-01-18T01:30:26.026Z,1.40
2019-01-18T01:32:56.457Z,1.50
2019-01-18T01:35:26.566Z,1.50
2019-01-18T01:37:56.541Z,1.60
2019-01-18T01:40:29.662Z,1.60
2019-01-18T01:42:59.514Z,1.60
2019-01-18T01:45:29.761Z,1.50
2019-01-18T01:47:59.548Z,1.50
2019-01-18T01:50:29.425Z,1.50
2019-01-18T01:52:59.468Z,1.40
2019-01-18T01:55:29.362Z,1.40
2019-01-18T01:57:59.786Z,1.40
2019-01-18T02:00:30.023Z,1.40
2019-01-18T02:02:59.907Z,1.50
2019-01-18T02:05:29.766Z,1.40
2019-01-18T02:07:59.851Z,1.50
2019-01-18T02:10:29.826Z,1.50
2019-01-18T02:12:59.945Z,1.40
2019-01-18T02:15:29.883Z,1.40
2019-01-18T02:18:00.315Z,1.50
2019-01-18T02:20:30.413Z,1.60
2019-01-18T02:23:00.458Z,1.70
2019-01-18T02:25:30.603Z,1.70
2019-01-18T02:28:00.735Z,1.60
2019-01-18T02:30:30.888Z,1.40
2019-01-18T02:33:00.688Z,1.50
2019-01-18T02:35:30.573Z,1.50
2019-01-18T02:38:00.650Z,1.40
2019-01-18T02:40:30.501Z,1.40
2019-01-18T02:43:00.182Z,1.40
2019-01-18T02:45:29.997Z,1.40
2019-01-18T02:47:59.762Z,1.30
2019-01-18T02:50:29.670Z,1.30
2019-01-18T02:52:59.704Z,1.20
2019-01-18T02:55:29.476Z,1.20
2019-01-18T02:57:59.492Z,1.30
2019-01-18T03:00:29.512Z,1.40
2019-01-18T03:03:00.120Z,1.40
2019-01-18T03:05:29.968Z,1.40
2019-01-18T03:07:59.735Z,1.40
2019-01-18T03:10:31.208Z,1.40
2019-01-18T03:13:01.031Z,1.30
2019-01-18T03:15:31.496Z,1.30
2019-01-18T03:18:01.498Z,1.30
2019-01-18T03:20:31.643Z,1.20
2019-01-18T03:23:02.219Z,1.30
2019-01-18T03:25:31.915Z,1.30
2019-01-18T03:28:01.950Z,1.40
2019-01-18T03:30:31.948Z,1.40
2019-01-18T03:33:02.126Z,1.40
2019-01-18T03:35:32.025Z,1.40
2019-01-18T03:38:02.153Z,1.40
2019-01-18T03:40:31.987Z,1.30
2019-01-18T03:43:02.012Z,1.20
2019-01-18T03:45:32.029Z,1.10
2019-01-18T03:48:02.559Z,1.20
2019-01-18T03:50:32.371Z,1.10
2019-01-18T03:53:02.425Z,1.20
2019-01-18T03:55:32.178Z,1.10
2019-01-18T03:58:02.205Z,0.90
2019-01-18T04:00:32.347Z,1.00
2019-01-18T04:03:02.635Z,1.00
2019-01-18T04:05:32.677Z,1.10
2019-01-18T04:08:02.516Z,1.20
2019-01-18T04:10:32.493Z,1.20
2019-01-18T04:13:02.257Z,1.20
2019-01-18T04:15:32.015Z,1.20
2019-01-18T04:18:01.731Z,1.10
2019-01-18T04:20:31.726Z,1.10
2019-01-18T04:23:01.475Z,1.10
2019-01-18T04:25:32.530Z,1.10
2019-01-18T04:28:02.261Z,1.10
2019-01-18T04:30:33.670Z,1.10
2019-01-18T04:33:03.897Z,1.10
2019-01-18T04:35:33.654Z,1.10
2019-01-18T04:38:03.483Z,1.00
2019-01-18T04:40:33.249Z,1.00
2019-01-18T04:43:03.311Z,1.10
2019-01-18T04:45:33.981Z,1.10
2019-01-18T04:48:09.325Z,1.00
2019-01-18T04:50:39.729Z,1.00
2019-01-18T04:53:09.458Z,1.00
2019-01-18T04:55:39.264Z,1.00
2019-01-18T04:58:08.958Z,1.10
2019-01-18T05:00:41.024Z,1.00
2019-01-18T05:03:10.476Z,1.00
2019-01-18T05:05:40.321Z,1.00
2019-01-18T05:08:10.094Z,1.00
2019-01-18T05:10:39.870Z,1.00
2019-01-18T05:13:10.210Z,1.00
2019-01-18T05:15:40.146Z,1.00
2019-01-18T05:18:09.910Z,0.90
2019-01-18T05:20:39.721Z,1.00
2019-01-18T05:23:09.438Z,1.00
2019-01-18T05:25:39.155Z,1.10
2019-01-18T05:28:09.041Z,1.10
2019-01-18T05:30:39.054Z,1.00
2019-01-18T05:33:09.189Z,1.00
2019-01-18T05:35:39.278Z,1.00
2019-01-18T05:38:09.061Z,1.00
2019-01-18T05:40:39.039Z,0.90
2019-01-18T05:43:09.463Z,1.00
2019-01-18T05:45:39.490Z,1.00
2019-01-18T05:48:09.458Z,1.10
2019-01-18T05:50:39.331Z,1.00
2019-01-18T05:53:09.790Z,1.10
2019-01-18T05:55:39.483Z,1.10
2019-01-18T05:58:09.207Z,1.00
2019-01-18T06:00:58.617Z,1.10
2019-01-18T06:03:28.425Z,1.00
2019-01-18T06:05:58.559Z,1.00
2019-01-18T06:08:29.047Z,1.00
2019-01-18T06:11:02.408Z,0.90
2019-01-18T06:13:33.310Z,1.00
2019-01-18T06:16:03.985Z,1.00
2019-01-18T06:18:34.706Z,1.00
2019-01-18T06:21:05.545Z,1.00
2019-01-18T06:23:35.439Z,1.10
2019-01-18T06:26:05.554Z,1.10
2019-01-18T06:28:35.354Z,1.10
2019-01-18T06:31:05.059Z,1.20
2019-01-18T06:33:35.092Z,1.20
2019-01-18T06:36:05.418Z,1.10
2019-01-18T06:38:35.322Z,1.10
2019-01-18T06:41:30.766Z,1.10
2019-01-18T06:44:00.575Z,1.20
2019-01-18T06:46:30.261Z,1.20
2019-01-18T06:49:00.726Z,1.20
2019-01-18T06:51:31.010Z,1.20
2019-01-18T06:54:00.706Z,1.20
2019-01-18T06:56:30.491Z,1.30
2019-01-18T06:59:00.546Z,1.20
2019-01-18T07:01:30.629Z,1.10
2019-01-18T07:04:00.842Z,1.10
2019-01-18T07:06:30.895Z,1.20
2019-01-18T07:09:00.613Z,1.20
2019-01-18T07:11:30.373Z,1.20
2019-01-18T07:14:00.170Z,1.10
2019-01-18T07:16:29.869Z,1.10
2019-01-18T07:18:59.549Z,1.00
2019-01-18T07:21:29.450Z,0.90
2019-01-18T07:23:59.294Z,0.90
2019-01-18T07:26:29.062Z,1.00
2019-01-18T07:28:58.836Z,0.90
2019-01-18T07:31:28.923Z,0.90
2019-01-18T07:33:58.711Z,0.90
2019-01-18T07:36:28.587Z,0.90
2019-01-18T07:39:00.604Z,0.90
2019-01-18T07:41:30.143Z,0.80
2019-01-18T07:43:59.898Z,0.80
2019-01-18T07:46:29.674Z,0.90
2019-01-18T07:48:59.478Z,0.80
2019-01-18T07:51:29.346Z,0.90
2019-01-18T07:53:59.342Z,0.90
2019-01-18T07:56:29.202Z,0.90
2019-01-18T07:58:59.363Z,0.90
2019-01-18T08:01:29.296Z,0.90
2019-01-18T08:03:59.506Z,0.90
2019-01-18T08:06:29.564Z,1.00
2019-01-18T08:08:59.927Z,1.00
2019-01-18T08:11:30.148Z,1.00
2019-01-18T08:14:00.214Z,1.10
2019-01-18T08:16:29.990Z,1.00
2019-01-18T08:19:00.062Z,1.00
2019-01-18T08:21:29.868Z,1.10
2019-01-18T08:23:59.672Z,1.10
2019-01-18T08:26:29.515Z,1.10
2019-01-18T08:28:59.259Z,1.00
2019-01-18T08:31:29.243Z,1.10
2019-01-18T08:33:59.182Z,1.00
2019-01-18T08:36:28.942Z,1.10
2019-01-18T08:38:58.751Z,1.00
2019-01-18T08:41:28.549Z,1.00
2019-01-18T08:43:58.399Z,1.10
2019-01-18T08:46:28.450Z,1.20
2019-01-18T08:48:58.311Z,1.10
2019-01-18T08:51:28.000Z,1.10
2019-01-18T08:53:59.178Z,1.20
2019-01-18T08:56:28.947Z,1.20
2019-01-18T08:58:59.225Z,1.20
2019-01-18T09:01:35.538Z,1.10
2019-01-18T09:04:00.490Z,1.10
2019-01-18T09:06:30.211Z,1.20
2019-01-18T09:08:59.955Z,1.20
2019-01-18T09:11:29.794Z,1.20
2019-01-18T09:13:59.798Z,1.20
2019-01-18T09:16:29.815Z,1.30
2019-01-18T09:18:59.845Z,1.30
2019-01-18T09:21:29.572Z,1.30
2019-01-18T09:23:59.267Z,1.40
2019-01-18T09:26:29.262Z,1.60
2019-01-18T09:28:59.413Z,1.50
2019-01-18T09:31:29.172Z,1.40
2019-01-18T09:33:59.407Z,1.60
2019-01-18T09:36:29.272Z,1.70
2019-01-18T09:38:59.141Z,1.60
2019-01-18T09:41:29.253Z,1.60
2019-01-18T09:43:59.539Z,1.70
2019-01-18T09:46:29.588Z,1.70
2019-01-18T09:48:59.330Z,1.70
2019-01-18T09:51:29.201Z,1.70
2019-01-18T09:53:58.894Z,1.70
2019-01-18T09:56:28.998Z,1.80
2019-01-18T09:58:58.810Z,1.80
2019-01-18T10:01:28.606Z,1.90
2019-01-18T10:03:58.594Z,1.80
2019-01-18T10:06:28.308Z,1.80
2019-01-18T10:08:58.335Z,1.90
2019-01-18T10:11:28.360Z,1.80
2019-01-18T10:13:58.151Z,1.80
2019-01-18T10:16:28.021Z,1.90
2019-01-18T10:18:57.733Z,2.00
2019-01-18T10:21:27.891Z,2.00
2019-01-18T10:23:57.817Z,2.00
2019-01-18T10:26:27.599Z,1.90
2019-01-18T10:28:57.594Z,1.90
2019-01-18T10:31:27.711Z,1.80
2019-01-18T10:33:57.492Z,1.70
2019-01-18T10:36:27.352Z,1.70
2019-01-18T10:38:57.095Z,1.70
2019-01-18T10:41:26.811Z,1.70
2019-01-18T10:43:56.516Z,1.70
2019-01-18T10:46:26.274Z,1.70
2019-01-18T10:48:56.335Z,1.70
2019-01-18T10:51:26.039Z,1.60
2019-01-18T10:53:55.718Z,1.50
2019-01-18T10:56:25.557Z,1.50
2019-01-18T10:58:55.352Z,1.60
2019-01-18T11:01:25.458Z,1.50
2019-01-18T11:03:55.318Z,1.50
2019-01-18T11:06:25.095Z,1.40
2019-01-18T11:08:55.057Z,1.50
2019-01-18T11:11:24.820Z,1.40
2019-01-18T11:13:54.784Z,1.40
2019-01-18T11:16:24.805Z,1.50
2019-01-18T11:18:54.578Z,1.50
2019-01-18T11:21:24.706Z,1.50
2019-01-18T11:23:54.557Z,1.60
2019-01-18T11:26:24.342Z,1.60
2019-01-18T11:28:54.047Z,1.50
2019-01-18T11:31:24.070Z,1.50
2019-01-18T11:33:53.905Z,1.50
2019-01-18T11:36:23.661Z,1.50
2019-01-18T11:38:53.807Z,1.60
2019-01-18T11:41:23.595Z,1.70
2019-01-18T11:43:53.731Z,1.70
2019-01-18T11:46:23.932Z,1.70
2019-01-18T11:48:53.743Z,1.70
2019-01-18T11:51:23.779Z,1.60
2019-01-18T11:53:53.841Z,1.60
2019-01-18T11:56:23.729Z,1.60
2019-01-18T11:58:53.935Z,1.40
2019-01-18T12:01:23.704Z,1.50
2019-01-18T12:03:53.499Z,1.40
2019-01-18T12:06:23.261Z,1.40
2019-01-18T12:08:53.143Z,1.50
2019-01-18T12:11:22.951Z,1.60
2019-01-18T12:13:52.826Z,1.70
2019-01-18T12:16:22.843Z,1.80
2019-01-18T12:18:53.120Z,1.80
2019-01-18T12:21:22.908Z,1.80
2019-01-18T12:23:52.714Z,1.90
2019-01-18T12:26:22.802Z,1.90
2019-01-18T12:28:52.581Z,1.80
2019-01-18T12:31:22.611Z,1.90
2019-01-18T12:33:52.698Z,2.00
2019-01-18T12:36:22.548Z,2.70
2019-01-18T12:38:52.362Z,3.50
2019-01-18T12:41:22.180Z,3.80
2019-01-18T12:43:52.002Z,4.50
2019-01-18T12:46:21.754Z,5.10
2019-01-18T12:48:51.717Z,5.60
2019-01-18T12:51:21.554Z,5.90
2019-01-18T12:53:51.589Z,5.70
2019-01-18T12:56:21.512Z,5.60
2019-01-18T12:58:51.641Z,5.20
2019-01-18T13:01:21.671Z,5.00
2019-01-18T13:03:51.454Z,4.90
2019-01-18T13:06:21.544Z,4.70
2019-01-18T13:08:51.238Z,4.40
2019-01-18T13:11:21.283Z,3.90
2019-01-18T13:13:51.090Z,3.70
2019-01-18T13:16:44.867Z,3.70
2019-01-18T13:19:20.028Z,3.30
2019-01-18T13:21:49.820Z,3.20
2019-01-18T13:24:19.662Z,3.00
2019-01-18T13:26:49.545Z,3.00
2019-01-18T13:29:19.725Z,2.90
2019-01-18T13:31:49.589Z,2.90
2019-01-18T13:34:19.564Z,2.90
2019-01-18T13:36:49.531Z,2.90
2019-01-18T13:39:19.409Z,2.90
2019-01-18T13:41:49.666Z,2.90
2019-01-18T13:44:19.488Z,2.90
2019-01-18T13:46:49.312Z,2.90
2019-01-18T13:49:19.275Z,2.90
2019-01-18T13:51:49.141Z,3.00
2019-01-18T13:54:18.910Z,2.90
2019-01-18T13:56:49.193Z,3.00
2019-01-18T13:59:18.998Z,3.10
2019-01-18T14:01:49.035Z,3.10
2019-01-18T14:04:18.846Z,3.10
2019-01-18T14:06:48.794Z,3.20
2019-01-18T14:09:18.903Z,3.20
2019-01-18T14:11:48.772Z,3.20
2019-01-18T14:14:19.415Z,3.10
2019-01-18T14:16:49.165Z,3.10
2019-01-18T14:19:19.133Z,3.10
2019-01-18T14:21:49.071Z,3.20
2019-01-18T14:24:18.853Z,3.20
2019-01-18T14:26:48.861Z,3.10
2019-01-18T14:29:18.545Z,3.10
2019-01-18T14:31:48.529Z,2.90
2019-01-18T14:34:18.489Z,2.90
2019-01-18T14:36:48.545Z,3.00
2019-01-18T14:39:18.261Z,2.90
2019-01-18T14:41:48.034Z,2.90
2019-01-18T14:44:17.899Z,3.00
2019-01-18T14:46:47.937Z,3.00
2019-01-18T14:49:17.778Z,3.20
2019-01-18T14:51:47.641Z,3.30
2019-01-18T14:54:17.457Z,3.30
2019-01-18T14:56:47.243Z,3.40
2019-01-18T14:59:17.088Z,3.30
2019-01-18T15:01:47.092Z,3.20
2019-01-18T15:04:17.051Z,3.10
2019-01-18T15:06:46.875Z,3.40
2019-01-18T15:09:16.747Z,3.40
2019-01-18T15:11:46.577Z,3.50
2019-01-18T15:14:16.525Z,3.50
2019-01-18T15:16:46.792Z,3.60
2019-01-18T15:19:16.631Z,3.50
2019-01-18T15:21:46.361Z,3.40
2019-01-18T15:24:16.254Z,3.20
2019-01-18T15:26:46.104Z,3.00
2019-01-18T15:29:16.070Z,3.10
2019-01-18T15:31:45.998Z,3.00
2019-01-18T15:34:16.031Z,3.00
2019-01-18T15:36:45.923Z,2.90
2019-01-18T15:39:15.922Z,2.90
2019-01-18T15:41:46.045Z,2.80
2019-01-18T15:44:15.898Z,2.70
2019-01-18T15:46:45.709Z,2.70
2019-01-18T15:49:15.743Z,2.70
2019-01-18T15:51:45.758Z,2.60
2019-01-18T15:54:16.214Z,2.60
2019-01-18T15:56:46.062Z,2.40
2019-01-18T15:59:15.854Z,2.40
2019-01-18T16:01:45.942Z,2.20
2019-01-18T16:04:15.809Z,2.10
2019-01-18T16:06:45.611Z,2.10
2019-01-18T16:09:15.631Z,2.00
2019-01-18T16:11:45.891Z,1.90
2019-01-18T16:14:15.615Z,1.80
2019-01-18T16:16:55.039Z,1.80
2019-01-18T16:19:24.855Z,1.70
2019-01-18T16:21:54.846Z,1.60
2019-01-18T16:24:24.719Z,1.60
2019-01-18T16:26:54.708Z,1.60
2019-01-18T16:29:24.510Z,1.60
2019-01-18T16:31:54.558Z,1.50
2019-01-18T16:34:25.219Z,1.40
2019-01-18T16:36:55.379Z,1.40
2019-01-18T16:39:25.684Z,1.40
2019-01-18T16:41:55.498Z,1.30
2019-01-18T16:44:25.387Z,1.50
2019-01-18T16:46:55.537Z,1.50
2019-01-18T16:49:25.240Z,1.40
2019-01-18T16:51:55.070Z,1.40
2019-01-18T16:54:25.135Z,1.30
2019-01-18T16:56:54.970Z,1.20
2019-01-18T16:59:25.122Z,1.20
2019-01-18T17:01:54.904Z,1.20
2019-01-18T17:04:25.199Z,1.20
2019-01-18T17:06:56.489Z,1.10
2019-01-18T17:09:35.738Z,1.00
2019-01-18T17:12:06.108Z,1.00
2019-01-18T17:14:35.995Z,1.00
2019-01-18T17:17:05.978Z,1.00
2019-01-18T17:19:36.010Z,1.00
2019-01-18T17:22:06.056Z,1.00
2019-01-18T17:24:35.756Z,1.00
2019-01-18T17:27:05.635Z,0.80
2019-01-18T17:29:35.660Z,0.80
2019-01-18T17:32:05.481Z,0.80
2019-01-18T17:34:35.505Z,0.80
2019-01-18T17:37:15.860Z,0.80
2019-01-18T17:40:02.819Z,0.90
2019-01-18T17:43:15.046Z,0.90
2019-01-18T17:46:24.090Z,0.90
2019-01-18T17:49:26.490Z,0.90
2019-01-18T17:52:37.888Z,0.90
2019-01-18T17:55:54.717Z,0.80
2019-01-18T17:59:00.778Z,0.80
2019-01-18T18:02:05.334Z,0.70
2019-01-18T18:04:57.547Z,0.70
2019-01-18T18:08:08.496Z,0.70
2019-01-18T18:11:04.536Z,0.60
2019-01-18T18:14:22.378Z,0.60
2019-01-18T18:17:24.563Z,0.60
2019-01-18T18:20:30.730Z,0.60
2019-01-18T18:24:06.298Z,0.60
2019-01-18T18:27:17.554Z,0.50
2019-01-18T18:30:16.374Z,0.50
2019-01-18T18:33:39.390Z,0.50
2019-01-18T18:36:44.876Z,0.50
2019-01-18T18:39:57.832Z,0.50
2019-01-18T18:42:58.269Z,0.60
2019-01-18T18:45:50.290Z,0.60
2019-01-18T18:49:04.307Z,0.80
2019-01-18T18:52:21.319Z,0.80
2019-01-18T18:55:19.146Z,0.80
2019-01-18T18:58:34.995Z,0.80
2019-01-18T19:01:56.624Z,0.80
2019-01-18T19:04:55.983Z,0.90
2019-01-18T19:07:54.553Z,0.90
2019-01-18T19:11:05.698Z,0.90
2019-01-18T19:14:15.583Z,1.00
2019-01-18T19:17:22.582Z,1.20
2019-01-18T19:20:28.114Z,1.10
2019-01-18T19:23:24.022Z,1.00
2019-01-18T19:26:20.451Z,1.00
2019-01-18T19:29:27.357Z,0.90
2019-01-18T19:32:35.600Z,1.00
2019-01-18T19:35:33.543Z,1.00
2019-01-18T19:38:16.826Z,1.10
2019-01-18T19:41:11.736Z,1.00
2019-01-18T19:44:25.833Z,1.00
2019-01-18T19:47:11.442Z,1.10
2019-01-18T19:50:19.656Z,1.00
2019-01-18T19:53:29.378Z,1.00
2019-01-18T19:56:08.751Z,1.10
2019-01-18T19:59:18.492Z,1.10
2019-01-18T20:02:25.673Z,1.10
2019-01-18T20:05:26.974Z,1.20
2019-01-18T20:08:41.170Z,1.00
2019-01-18T20:11:49.781Z,1.20
2019-01-18T20:14:54.107Z,1.00
2019-01-18T20:17:46.974Z,1.10
2019-01-18T20:21:11.888Z,1.00
2019-01-18T20:24:14.674Z,1.00
2019-01-18T20:27:29.000Z,0.90
2019-01-18T20:30:30.228Z,0.90
2019-01-18T20:33:14.523Z,1.00
2019-01-18T20:36:10.736Z,0.80
2019-01-18T20:39:14.870Z,0.80
2019-01-18T20:42:13.950Z,0.80
2019-01-18T20:45:07.063Z,0.80
2019-01-18T20:48:30.357Z,0.70
2019-01-18T20:51:32.238Z,0.70
2019-01-18T20:54:44.515Z,0.60
2019-01-18T20:58:03.662Z,0.60
2019-01-18T21:01:01.189Z,0.60
2019-01-18T21:03:50.719Z,0.60
2019-01-18T21:06:51.923Z,0.50
2019-01-18T21:09:36.982Z,0.60
2019-01-18T21:12:48.262Z,0.60
2019-01-18T21:16:01.517Z,0.40
2019-01-18T21:19:02.953Z,0.40
2019-01-18T21:22:13.055Z,0.30
2019-01-18T21:25:28.141Z,0.40
2019-01-18T21:28:35.007Z,0.30
2019-01-18T21:31:21.260Z,0.30
2019-01-18T21:34:07.457Z,0.20
2019-01-18T21:37:23.783Z,0.20
2019-01-18T21:40:05.602Z,0.10
2019-01-18T21:42:56.515Z,0.00
2019-01-18T21:45:52.788Z,0.10
2019-01-18T21:48:37.186Z,-0.10
2019-01-18T21:51:42.301Z,-0.20
2019-01-18T21:54:56.278Z,-0.10
2019-01-18T21:58:03.019Z,0.00
2019-01-18T22:00:58.552Z,0.20
2019-01-18T22:03:46.820Z,0.30
2019-01-18T22:06:39.570Z,0.30
2019-01-18T22:09:31.419Z,0.30
2019-01-18T22:12:39.690Z,0.20
2019-01-18T22:16:00.317Z,0.10
2019-01-18T22:19:30.527Z,0.30
2019-01-18T22:22:14.004Z,0.10
2019-01-18T22:25:10.333Z,0.10
2019-01-18T22:27:58.179Z,0.10
2019-01-18T22:30:50.734Z,0.10
2019-01-18T22:33:48.848Z,0.00
2019-01-18T22:36:57.043Z,0.00
2019-01-18T22:39:44.683Z,-0.10
2019-01-18T22:42:48.042Z,-0.20
2019-01-18T22:46:08.614Z,-0.20
2019-01-18T22:49:15.353Z,-0.10
2019-01-18T22:51:56.737Z,-0.20
2019-01-18T22:55:00.692Z,-0.20
2019-01-18T22:57:43.220Z,-0.30
2019-01-18T23:00:43.624Z,-0.50
2019-01-18T23:03:40.182Z,-0.60
2019-01-18T23:06:46.994Z,-0.50
2019-01-18T23:09:40.382Z,-0.40
2019-01-18T23:12:36.519Z,-0.40
2019-01-18T23:15:44.990Z,-0.30
2019-01-18T23:18:42.686Z,-0.50
2019-01-18T23:21:39.517Z,-0.50
2019-01-18T23:24:33.649Z,-0.50
2019-01-18T23:27:44.574Z,-0.50
2019-01-18T23:30:45.164Z,-0.40
2019-01-18T23:33:41.598Z,-0.40
2019-01-18T23:36:23.819Z,-0.40
2019-01-18T23:39:49.213Z,-0.60
2019-01-18T23:42:59.552Z,-0.70
2019-01-18T23:46:11.708Z,-0.70
2019-01-18T23:49:18.224Z,-0.80
2019-01-18T23:52:28.647Z,-0.90
2019-01-18T23:55:58.538Z,-0.80
2019-01-18T23:59:02.226Z,-0.70
